Portada
METAR-TAF:

METAR-TAF

Aeroports :

Goldsboro, Carolina del Nord, Estats Units d'Amèrica

latitud: 35-27-38N, longitud: 077-57-54W, altitud: 40 m

Observació

L'informe es va fer fa 16 minuts, a les 18:35 UTC
Vent calma
Temperatura 32°C
Humitat 63%
Pressió 1015 hPa
Visibilitat: 16.1 km
Núvols disperses a una alçada de 3600 ft
Núvols disperses a una alçada de 4300 ft

METAR: KGWW 111835Z AUTO 00000KT 10SM SCT036 SCT043 32/24 A2998 RMK AO2 T03150239

Hora: 14:51 (18:51 UTC)


TAF: manca

Observacions i pronòstics meteorològics de més de 4000 aeroports (METAR i TAF).

Les estacions disponibles són els punts grocs i vermells al mapa.

Posi el ratolí al punt desitjat per veure el nom de l'estació.

Feu clic per veure les observacions i els pronòstics meteorològics.

Per canviar el mapa: feu clic els botons verds amb una creu de color negre per apropar; al botó verd amb un guió per allunyar la imatge; o en les fletxes verdes per a mapes adjacents.


METAR-TAF: